Time;durP1;ratioP1;P1;durP2;ratioP2;P2;SDS_P1;SDS_P2;PMS_P1;PMS_P2;Temp;Humidity;BMP_temperature;BMP_pressure;BME280_temperature;BME280_humidity;BME280_pressure;Samples;Min_cycle;Max_cycle;Signal;HPM_P1;HPM_P2
2021/05/04 00:01:00;;;;;;;26.25;17.70;;;;;;;-150.07;62.42;54951.16;4991504;28;20022;-82
2021/05/04 00:03:27;;;;;;;27.02;19.48;;;;;;;-150.07;62.70;54951.16;4991836;28;20122;-83
2021/05/04 00:05:54;;;;;;;27.63;19.17;;;;;;;-150.07;62.30;54949.06;4975344;28;20029;-84
2021/05/04 00:08:21;;;;;;;25.60;19.73;;;;;;;-150.07;62.66;54946.97;4975993;28;20026;-83
2021/05/04 00:10:48;;;;;;;31.05;18.70;;;;;;;-150.07;62.47;54951.16;4975112;28;20058;-83
2021/05/04 00:13:15;;;;;;;27.30;19.08;;;;;;;-150.07;62.30;54949.06;4976050;28;20085;-84
2021/05/04 00:15:42;;;;;;;30.48;19.67;;;;;;;-150.07;62.77;54951.16;4976607;28;20381;-84
2021/05/04 00:18:09;;;;;;;28.60;18.23;;;;;;;-150.07;61.88;54949.06;4975981;28;20034;-83
2021/05/04 00:20:36;;;;;;;24.83;19.33;;;;;;;-150.07;61.86;54949.06;4975578;28;20121;-82
2021/05/04 00:23:03;;;;;;;26.70;17.27;;;;;;;-150.07;60.76;54949.06;4962982;28;20049;-84
2021/05/04 00:25:30;;;;;;;25.48;18.52;;;;;;;-150.07;60.88;54951.16;4972647;28;20027;-84
2021/05/04 00:27:57;;;;;;;31.20;20.02;;;;;;;-150.07;61.07;54951.16;4992229;28;20022;-83
2021/05/04 00:30:24;;;;;;;37.22;20.17;;;;;;;-150.07;61.04;54951.16;4990475;28;20034;-83
2021/05/04 00:32:51;;;;;;;34.20;17.80;;;;;;;-150.07;59.45;54949.06;4993335;28;20022;-82
2021/05/04 00:35:17;;;;;;;32.30;18.17;;;;;;;-150.07;60.69;54949.06;4990907;28;20032;-81
2021/05/04 00:37:44;;;;;;;31.02;18.52;;;;;;;-150.07;59.02;54951.16;4989198;28;20030;-80
2021/05/04 00:40:14;;;;;;;34.08;18.75;;;;;;;-150.07;60.15;54946.97;4991352;28;20798;-82
2021/05/04 00:42:41;;;;;;;29.02;19.83;;;;;;;-150.07;60.15;54946.97;4991862;28;20022;-81
2021/05/04 00:45:08;;;;;;;30.85;19.42;;;;;;;-150.07;59.69;54951.16;4988475;28;20026;-83
2021/05/04 00:47:35;;;;;;;24.48;18.80;;;;;;;-150.07;60.47;54949.06;4973907;28;20075;-83
2021/05/04 00:50:05;;;;;;;28.25;20.17;;;;;;;-150.07;60.10;54951.16;4977166;28;20034;-87
2021/05/04 00:52:32;;;;;;;31.42;19.92;;;;;;;-150.07;59.46;54951.16;4991094;28;20525;-83
2021/05/04 00:54:59;;;;;;;29.70;21.70;;;;;;;-150.07;58.70;54949.06;4974747;28;20039;-85
2021/05/04 00:57:26;;;;;;;25.95;19.27;;;;;;;-150.07;59.04;54951.16;4989364;28;20046;-83
2021/05/04 00:59:55;;;;;;;33.47;20.90;;;;;;;-150.07;59.10;54951.16;4989320;28;20034;-85
2021/05/04 01:02:22;;;;;;;38.08;23.88;;;;;;;-150.07;59.07;54949.06;4974370;28;20033;-85
2021/05/04 01:04:49;;;;;;;35.85;23.58;;;;;;;-150.07;59.33;54951.16;4992030;28;20138;-86
2021/05/04 01:07:16;;;;;;;38.20;25.25;;;;;;;-150.07;60.93;54949.06;4974388;28;20110;-85
2021/05/04 01:09:45;;;;;;;31.80;25.17;;;;;;;-150.07;61.74;54951.16;4972296;28;20479;-84
2021/05/04 01:12:12;;;;;;;38.50;24.15;;;;;;;-150.07;62.24;54951.16;4991548;28;20035;-83
2021/05/04 01:14:39;;;;;;;44.72;28.10;;;;;;;-150.07;61.27;54946.97;4990890;28;20026;-84
2021/05/04 01:17:06;;;;;;;36.55;25.80;;;;;;;-150.07;61.22;54949.06;4967771;28;20023;-85
2021/05/04 01:19:33;;;;;;;37.00;25.55;;;;;;;-150.07;60.47;54951.16;4971124;28;20058;-82
2021/05/04 01:22:00;;;;;;;40.80;28.60;;;;;;;-150.07;60.32;54951.16;4980936;28;20034;-83
2021/05/04 01:24:27;;;;;;;42.30;27.33;;;;;;;-150.07;61.42;54949.06;4970171;28;20101;-83
2021/05/04 01:26:54;;;;;;;48.45;29.27;;;;;;;-150.07;60.35;54946.97;4975472;28;20022;-86
2021/05/04 01:29:21;;;;;;;44.85;28.52;;;;;;;-150.07;59.95;54946.97;4975481;28;20034;-85
2021/05/04 01:31:47;;;;;;;35.10;26.35;;;;;;;-150.07;60.17;54946.97;4991038;28;20487;-84
2021/05/04 01:34:14;;;;;;;43.00;29.20;;;;;;;-150.07;59.84;54949.06;4972689;28;20049;-82
2021/05/04 01:36:41;;;;;;;52.00;30.60;;;;;;;-150.07;60.37;54949.06;4973455;28;20038;-84
2021/05/04 01:39:10;;;;;;;45.40;28.92;;;;;;;-150.07;59.79;54949.06;4992131;28;20515;-85
2021/05/04 01:41:37;;;;;;;43.22;31.10;;;;;;;-150.07;59.70;54951.16;4987936;28;20510;-84
2021/05/04 01:44:06;;;;;;;46.75;30.60;;;;;;;-150.07;59.59;54949.06;4991532;28;20708;-83
2021/05/04 01:46:33;;;;;;;41.10;27.10;;;;;;;-150.07;58.04;54951.16;4991727;28;20031;-84
2021/05/04 01:49:09;;;;;;;46.47;27.25;;;;;;;-150.07;57.81;54951.16;4985618;28;20061;-84
2021/05/04 01:51:38;;;;;;;42.47;27.63;;;;;;;-150.07;57.85;54946.97;4971249;28;20057;-86
2021/05/04 01:54:05;;;;;;;33.33;22.57;;;;;;;-150.07;57.69;54951.16;4995129;28;20033;-83
2021/05/04 01:56:32;;;;;;;45.10;31.15;;;;;;;-150.07;58.44;54946.97;4989328;28;20126;-84
2021/05/04 01:59:03;;;;;;;44.42;32.05;;;;;;;-150.07;58.66;54951.16;4975646;28;20035;-83
2021/05/04 02:01:30;;;;;;;37.72;28.65;;;;;;;-150.07;57.62;54946.97;4971990;28;20096;-80
2021/05/04 02:03:57;;;;;;;43.22;30.20;;;;;;;-150.07;56.91;54949.06;4980825;28;20119;-78
2021/05/04 02:06:24;;;;;;;38.00;30.20;;;;;;;-150.07;56.11;54949.06;4970977;28;20042;-79
2021/05/04 02:08:51;;;;;;;40.85;27.73;;;;;;;-150.07;55.43;54946.97;4971163;28;20089;-79
2021/05/04 02:11:18;;;;;;;35.75;26.50;;;;;;;-150.07;55.68;54949.06;4970693;28;20015;-78
2021/05/04 02:13:44;;;;;;;36.63;26.67;;;;;;;-150.07;55.77;54951.16;4974229;28;20405;-78
2021/05/04 02:16:11;;;;;;;33.28;25.42;;;;;;;-150.07;56.52;54951.16;4974668;28;20125;-76
2021/05/04 02:18:38;;;;;;;34.22;27.10;;;;;;;-150.07;56.37;54949.06;4973619;28;20118;-79
2021/05/04 02:21:05;;;;;;;47.15;26.60;;;;;;;-150.07;57.39;54946.97;4974727;28;20066;-80
2021/05/04 02:23:32;;;;;;;41.03;27.50;;;;;;;-150.07;57.41;54949.06;4974473;28;20054;-79
2021/05/04 02:26:00;;;;;;;36.70;25.58;;;;;;;-150.07;57.02;54949.06;4974905;28;20031;-77
2021/05/04 02:28:27;;;;;;;37.30;26.45;;;;;;;-150.07;57.39;54949.06;4974437;28;21855;-77
2021/05/04 02:30:54;;;;;;;45.78;28.42;;;;;;;-150.07;57.22;54946.97;4974220;28;20480;-76
2021/05/04 02:33:21;;;;;;;36.78;25.02;;;;;;;-150.07;57.68;54946.97;4973932;28;20042;-78
2021/05/04 02:35:47;;;;;;;34.38;26.63;;;;;;;-150.07;57.90;54951.16;4974829;28;20023;-79
2021/05/04 02:38:14;;;;;;;36.90;24.98;;;;;;;-150.07;58.02;54951.16;4975180;28;20380;-79
2021/05/04 02:40:41;;;;;;;40.00;23.42;;;;;;;-150.07;57.71;54949.06;4974869;28;20135;-79
2021/05/04 02:43:08;;;;;;;30.02;23.15;;;;;;;-150.07;57.92;54946.97;4974509;28;20049;-78
2021/05/04 02:45:35;;;;;;;31.52;21.83;;;;;;;-150.07;57.21;54949.06;4974474;28;20496;-77
2021/05/04 02:48:01;;;;;;;33.95;24.77;;;;;;;-150.07;57.59;54949.06;4974264;28;20094;-78
2021/05/04 02:50:28;;;;;;;30.17;22.08;;;;;;;-150.07;57.49;54949.06;4974087;28;20052;-77
2021/05/04 02:52:55;;;;;;;30.48;23.05;;;;;;;-150.07;57.39;54951.16;4974189;28;20052;-78
2021/05/04 02:55:22;;;;;;;40.05;26.02;;;;;;;-150.07;57.52;54949.06;4975802;28;20074;-76
2021/05/04 02:57:49;;;;;;;32.53;23.27;;;;;;;-150.07;57.39;54946.97;4994557;28;20046;-85
2021/05/04 03:00:16;;;;;;;37.35;25.90;;;;;;;-150.07;57.07;54949.06;4978376;28;20395;-90
2021/05/04 03:02:43;;;;;;;44.83;27.33;;;;;;;-150.07;56.83;54946.97;4995508;28;20484;-83
2021/05/04 03:05:10;;;;;;;50.88;31.60;;;;;;;-150.07;56.43;54951.16;4978520;28;20038;-84
2021/05/04 03:07:37;;;;;;;52.53;32.33;;;;;;;-150.07;56.23;54946.97;4977259;28;20084;-82
2021/05/04 03:10:06;;;;;;;38.13;26.02;;;;;;;-150.07;56.45;54946.97;4974427;28;20066;-85
2021/05/04 03:12:33;;;;;;;44.38;30.38;;;;;;;-150.07;55.98;54951.16;4993449;28;20031;-84
2021/05/04 03:15:00;;;;;;;39.42;27.20;;;;;;;-150.07;55.88;54949.06;4984921;28;20035;-83
2021/05/04 03:17:26;;;;;;;37.03;27.85;;;;;;;-150.07;56.31;54949.06;4966871;28;20031;-83
2021/05/04 03:19:53;;;;;;;40.90;28.90;;;;;;;-150.07;56.44;54949.06;4972830;28;20483;-83
2021/05/04 03:22:20;;;;;;;41.58;30.52;;;;;;;-150.07;56.05;54951.16;4979021;28;20080;-85
2021/05/04 03:24:47;;;;;;;35.97;28.92;;;;;;;-150.07;56.61;54949.06;4973954;28;20046;-84
2021/05/04 03:27:14;;;;;;;41.30;32.42;;;;;;;-150.07;56.29;54946.97;4974605;28;20122;-84
2021/05/04 03:29:41;;;;;;;46.28;31.00;;;;;;;-150.07;55.92;54951.16;4974858;28;20125;-83
2021/05/04 03:32:08;;;;;;;40.92;31.08;;;;;;;-150.07;55.63;54949.06;4993021;28;20034;-85
2021/05/04 03:34:34;;;;;;;40.72;31.48;;;;;;;-150.07;55.50;54951.16;4975992;28;20026;-83
2021/05/04 03:37:01;;;;;;;36.38;30.73;;;;;;;-150.07;55.77;54951.16;4990326;28;20117;-83
2021/05/04 03:39:28;;;;;;;41.75;29.75;;;;;;;-150.07;55.56;54949.06;4990085;28;20030;-83
2021/05/04 03:41:55;;;;;;;43.47;31.48;;;;;;;-150.07;55.40;54949.06;4992065;28;20551;-83
2021/05/04 03:44:22;;;;;;;42.13;30.02;;;;;;;-150.07;55.93;54951.16;4974693;28;20069;-84
2021/05/04 03:46:50;;;;;;;44.00;31.27;;;;;;;-150.07;56.12;54946.97;4974962;28;20476;-83
2021/05/04 03:49:17;;;;;;;40.83;32.47;;;;;;;-150.07;56.16;54946.97;4974508;28;20026;-85
2021/05/04 03:51:44;;;;;;;39.05;30.75;;;;;;;-150.07;56.83;54949.06;4987269;28;20026;-83
2021/05/04 03:54:10;;;;;;;47.22;32.28;;;;;;;-150.07;57.28;54942.78;4990383;28;20053;-85
2021/05/04 03:56:37;;;;;;;46.70;32.92;;;;;;;-150.07;57.71;54946.97;4974780;28;20066;-82
2021/05/04 03:59:04;;;;;;;44.83;32.45;;;;;;;-150.07;58.04;54951.16;4975187;28;20496;-85
2021/05/04 04:01:32;;;;;;;48.17;34.75;;;;;;;-150.07;57.76;54951.16;4994759;28;20038;-84
2021/05/04 04:03:59;;;;;;;44.55;34.35;;;;;;;-150.07;58.08;54951.16;4984830;28;20022;-84
2021/05/04 04:06:25;;;;;;;41.10;33.63;;;;;;;-150.07;58.38;54946.97;4999657;28;20022;-83
2021/05/04 04:08:52;;;;;;;48.42;34.40;;;;;;;-150.07;58.25;54949.06;4993185;28;20113;-83
2021/05/04 04:11:20;;;;;;;47.60;33.80;;;;;;;-150.07;58.10;54949.06;4969421;28;20136;-84
2021/05/04 04:13:46;;;;;;;49.15;35.35;;;;;;;-150.07;57.70;54949.06;4977070;28;20451;-84
2021/05/04 04:16:13;;;;;;;44.63;34.28;;;;;;;-150.07;57.84;54951.16;4976577;28;20396;-85
2021/05/04 04:18:40;;;;;;;51.88;34.22;;;;;;;-150.07;57.84;54949.06;4976875;28;20031;-84
2021/05/04 04:21:08;;;;;;;40.03;33.58;;;;;;;-150.07;58.09;54951.16;4993003;28;20034;-82
2021/05/04 04:23:35;;;;;;;45.60;36.55;;;;;;;-150.07;58.79;54949.06;4974865;28;20561;-83
2021/05/04 04:26:03;;;;;;;47.22;35.38;;;;;;;-150.07;59.22;54949.06;4981686;28;20022;-84
2021/05/04 04:28:29;;;;;;;49.90;35.47;;;;;;;-150.07;59.73;54949.06;4975305;28;20494;-84
2021/05/04 04:30:56;;;;;;;53.90;38.85;;;;;;;-150.07;60.75;54949.06;4985804;28;20471;-84
2021/05/04 04:33:27;;;;;;;48.42;37.30;;;;;;;-150.07;62.23;54946.97;4981165;28;20034;-82
2021/05/04 04:35:54;;;;;;;55.40;40.05;;;;;;;-150.07;62.75;54946.97;4992920;28;20038;-84
2021/05/04 04:38:21;;;;;;;54.70;38.53;;;;;;;-150.07;63.14;54946.97;4990675;28;20037;-84
2021/05/04 04:40:48;;;;;;;58.60;39.65;;;;;;;-150.07;63.62;54946.97;4972944;28;20057;-83
2021/05/04 04:43:15;;;;;;;52.50;41.08;;;;;;;-150.07;63.82;54951.16;4991546;28;20030;-83
2021/05/04 04:45:42;;;;;;;49.15;39.72;;;;;;;-150.07;63.92;54951.16;4991538;28;20475;-82
2021/05/04 04:48:09;;;;;;;50.08;38.30;;;;;;;-150.07;64.00;54946.97;4986975;28;20399;-83
2021/05/04 04:50:36;;;;;;;54.17;38.97;;;;;;;-150.07;64.41;54949.06;4990277;28;20030;-82
2021/05/04 04:53:06;;;;;;;51.40;39.22;;;;;;;-150.07;63.97;54951.16;4991750;28;20041;-83
2021/05/04 04:55:33;;;;;;;55.90;39.70;;;;;;;-150.07;64.57;54951.16;4974023;28;20439;-82
2021/05/04 04:58:00;;;;;;;54.70;40.65;;;;;;;-150.07;64.89;54951.16;4974318;28;20491;-83
2021/05/04 05:00:27;;;;;;;56.85;41.28;;;;;;;-150.07;65.31;54951.16;4989959;28;20510;-82
2021/05/04 05:02:54;;;;;;;55.05;39.88;;;;;;;-150.07;65.96;54949.06;4974147;28;20432;-84
2021/05/04 05:05:21;;;;;;;53.47;39.25;;;;;;;-150.07;66.16;54951.16;4991181;28;20109;-84
2021/05/04 05:07:48;;;;;;;70.43;46.22;;;;;;;-150.07;67.28;54951.16;4990406;28;20050;-84
2021/05/04 05:10:15;;;;;;;58.90;46.17;;;;;;;-150.07;68.33;54951.16;4989628;28;21153;-84
2021/05/04 05:12:45;;;;;;;66.30;46.10;;;;;;;-150.07;68.97;54949.06;4974018;28;20030;-84
2021/05/04 05:15:15;;;;;;;66.57;48.40;;;;;;;-150.07;69.74;54951.16;4991678;28;20041;-84
2021/05/04 05:17:42;;;;;;;62.75;46.10;;;;;;;-150.07;70.62;54946.97;4991312;28;20034;-84
2021/05/04 05:20:10;;;;;;;57.58;44.17;;;;;;;-150.07;71.29;54951.16;4996687;28;20026;-85
2021/05/04 05:22:37;;;;;;;65.43;44.50;;;;;;;-150.07;71.54;54946.97;4976584;28;20077;-83
2021/05/04 05:25:04;;;;;;;66.60;46.55;;;;;;;-150.07;71.52;54949.06;4990419;28;20036;-84
2021/05/04 05:27:33;;;;;;;62.45;46.75;;;;;;;-150.07;71.72;54951.16;4975859;28;20019;-85
2021/05/04 05:30:01;;;;;;;62.08;48.40;;;;;;;-150.07;71.97;54946.97;4994428;28;20030;-88
2021/05/04 05:32:28;;;;;;;65.30;47.03;;;;;;;-150.07;72.17;54951.16;4975574;28;20049;-84
2021/05/04 05:34:54;;;;;;;62.38;45.60;;;;;;;-150.07;72.78;54949.06;4983851;28;20026;-84
2021/05/04 05:37:21;;;;;;;67.20;45.95;;;;;;;-150.07;72.25;54951.16;4985231;28;20045;-86
2021/05/04 05:39:48;;;;;;;70.57;48.40;;;;;;;-150.07;72.51;54951.16;5001810;28;20034;-86
2021/05/04 05:42:15;;;;;;;63.65;46.60;;;;;;;-150.07;72.68;54949.06;4982996;28;20042;-84
2021/05/04 05:44:42;;;;;;;65.93;48.13;;;;;;;-150.07;72.83;54946.97;4993742;28;20030;-86
2021/05/04 05:47:09;;;;;;;62.72;44.30;;;;;;;-150.07;73.05;54946.97;4975857;28;20034;-83
2021/05/04 05:49:38;;;;;;;62.85;49.13;;;;;;;-150.07;73.28;54951.16;4978602;28;20061;-86
2021/05/04 05:52:08;;;;;;;56.85;44.35;;;;;;;-150.07;73.43;54946.97;4994863;28;20598;-83
2021/05/04 05:54:34;;;;;;;55.08;42.03;;;;;;;-150.07;73.79;54946.97;4980534;28;20030;-85
2021/05/04 05:57:02;;;;;;;56.88;41.75;;;;;;;-150.07;73.89;54951.16;4998784;28;20050;-85
2021/05/04 05:59:29;;;;;;;60.60;42.95;;;;;;;-150.07;74.09;54949.06;4982219;28;20026;-85
2021/05/04 06:01:56;;;;;;;54.75;39.92;;;;;;;-150.07;74.26;54951.16;4995359;28;20034;-85
2021/05/04 06:04:23;;;;;;;53.47;36.95;;;;;;;-150.07;74.46;54949.06;4980320;28;20089;-86
2021/05/04 06:06:50;;;;;;;60.78;41.90;;;;;;;-150.07;74.61;54951.16;4983223;28;20027;-86
2021/05/04 06:09:27;;;;;;;62.60;46.33;;;;;;;-150.07;74.88;54951.16;5003420;28;20010;-86
2021/05/04 06:11:57;;;;;;;72.22;48.55;;;;;;;-150.07;75.10;54951.16;5013066;28;20032;-85
2021/05/04 06:14:24;;;;;;;72.68;47.60;;;;;;;-150.07;74.96;54946.97;4981071;28;20061;-85
2021/05/04 06:16:51;;;;;;;60.80;45.88;;;;;;;-150.07;74.64;54951.16;4982268;28;20065;-85
2021/05/04 06:19:18;;;;;;;63.25;44.95;;;;;;;-150.07;74.57;54949.06;4976915;28;20031;-86
2021/05/04 06:21:45;;;;;;;66.70;47.80;;;;;;;-150.07;74.56;54946.97;4975194;28;20033;-85
2021/05/04 06:24:12;;;;;;;62.33;48.22;;;;;;;-150.07;74.74;54951.16;4977243;28;20100;-84
2021/05/04 06:26:39;;;;;;;69.95;47.67;;;;;;;-150.07;74.90;54951.16;4994688;28;20029;-85
2021/05/04 06:29:07;;;;;;;63.17;47.63;;;;;;;-150.07;74.91;54942.78;4976866;28;20483;-85
2021/05/04 06:31:35;;;;;;;66.15;48.17;;;;;;;-150.07;75.30;54949.06;4985206;28;20484;-84
2021/05/04 06:34:04;;;;;;;66.20;53.03;;;;;;;-150.07;75.40;54949.06;4958028;28;20031;-85
2021/05/04 06:36:31;;;;;;;67.33;53.37;;;;;;;-150.07;75.56;54946.97;4987684;28;20057;-84
2021/05/04 06:38:59;;;;;;;66.03;47.97;;;;;;;-150.07;75.50;54949.06;4993655;28;20037;-84
2021/05/04 06:41:28;;;;;;;76.40;53.00;;;;;;;-150.07;75.62;54949.06;4985109;28;20076;-83
2021/05/04 06:43:55;;;;;;;51.60;36.50;;;;;;;-150.07;75.67;54951.16;4993302;28;20060;-84
2021/05/04 06:46:21;;;;;;;50.30;38.97;;;;;;;-150.07;75.54;54946.97;4994186;28;20032;-84
2021/05/04 06:48:48;;;;;;;44.72;33.95;;;;;;;-150.07;75.93;54949.06;4994064;28;20030;-85
2021/05/04 06:51:15;;;;;;;54.25;33.47;;;;;;;-150.07;75.66;54946.97;4974610;28;20037;-84
2021/05/04 06:53:42;;;;;;;36.95;31.17;;;;;;;-150.07;75.49;54949.06;4976354;28;20065;-84
2021/05/04 06:56:09;;;;;;;45.78;32.72;;;;;;;-150.07;75.71;54949.06;4991083;28;20124;-83
2021/05/04 06:58:36;;;;;;;39.85;28.98;;;;;;;-150.07;75.58;54946.97;4976677;28;20076;-84
2021/05/04 07:01:02;;;;;;;37.20;27.73;;;;;;;-150.07;75.47;54949.06;4974285;28;20030;-85
2021/05/04 07:03:29;;;;;;;33.22;27.67;;;;;;;-150.07;75.30;54951.16;4975968;28;20038;-85
2021/05/04 07:05:56;;;;;;;39.78;29.52;;;;;;;-150.07;75.13;54949.06;4993305;28;20038;-84
2021/05/04 07:08:23;;;;;;;37.28;29.45;;;;;;;-150.07;75.02;54951.16;4977329;28;20048;-93
2021/05/04 07:10:50;;;;;;;40.72;30.25;;;;;;;-150.07;75.29;54951.16;4976389;28;20066;-93
2021/05/04 07:13:18;;;;;;;45.38;31.92;;;;;;;-150.07;75.39;54946.97;4981541;28;20052;-90
2021/05/04 07:15:46;;;;;;;48.67;30.15;;;;;;;-150.07;75.23;54951.16;5007613;28;20089;-90
2021/05/04 07:18:13;;;;;;;40.17;31.77;;;;;;;-150.07;74.96;54951.16;4980569;28;20029;-89
2021/05/04 07:20:41;;;;;;;41.13;30.35;;;;;;;-150.07;75.09;54949.06;4975160;28;20026;-83
2021/05/04 07:23:10;;;;;;;44.83;31.13;;;;;;;-150.07;75.13;54949.06;4985882;28;20026;-81
2021/05/04 07:25:38;;;;;;;43.67;29.38;;;;;;;-150.07;75.12;54946.97;4986673;28;20353;-79
2021/05/04 07:28:06;;;;;;;46.65;29.80;;;;;;;-150.07;75.13;54946.97;4993026;28;20026;-81
2021/05/04 07:30:37;;;;;;;39.17;30.33;;;;;;;-150.07;74.83;54951.16;4988321;28;20034;-80
2021/05/04 07:33:03;;;;;;;43.85;28.08;;;;;;;-150.07;74.41;54951.16;4991342;28;20077;-81
2021/05/04 07:35:30;;;;;;;36.80;29.00;;;;;;;-150.07;74.63;54949.06;4975097;28;20403;-80
2021/05/04 07:37:57;;;;;;;39.63;28.00;;;;;;;-150.07;74.54;54949.06;4992347;28;20045;-81
2021/05/04 07:40:24;;;;;;;40.83;27.25;;;;;;;-150.07;74.62;54946.97;4988557;28;20511;-81
2021/05/04 07:42:51;;;;;;;35.97;28.02;;;;;;;-150.07;74.62;54946.97;4992689;28;20003;-81
2021/05/04 07:45:18;;;;;;;38.50;29.73;;;;;;;-150.07;74.38;54949.06;4996143;28;20030;-90
2021/05/04 07:47:54;;;;;;;34.33;29.58;;;;;;;-150.07;74.12;54951.16;4997125;28;20030;-89
2021/05/04 07:50:22;;;;;;;45.55;28.50;;;;;;;-150.07;74.12;54946.97;4995030;28;20197;-90
2021/05/04 07:52:49;;;;;;;43.38;29.73;;;;;;;-150.07;73.99;54949.06;4979945;28;20026;-90
2021/05/04 07:55:16;;;;;;;37.85;28.73;;;;;;;-150.07;74.27;54951.16;4979597;28;20034;-90
2021/05/04 07:57:43;;;;;;;39.75;32.40;;;;;;;-150.07;73.85;54946.97;4978345;28;20022;-90
2021/05/04 08:00:11;;;;;;;46.72;33.70;;;;;;;-150.07;73.54;54951.16;4979264;28;20022;-90
2021/05/04 08:02:40;;;;;;;43.40;36.53;;;;;;;-150.07;73.94;54951.16;4961313;28;20118;-91
2021/05/04 08:05:08;;;;;;;49.15;39.75;;;;;;;-150.07;73.65;54951.16;4968106;28;20086;-89
2021/05/04 08:07:35;;;;;;;48.17;36.90;;;;;;;-150.07;73.57;54949.06;4997420;28;20098;-89
2021/05/04 08:10:06;;;;;;;59.20;40.65;;;;;;;-150.07;73.59;54951.16;4978598;28;20022;-90
2021/05/04 08:12:34;;;;;;;46.03;39.63;;;;;;;-150.07;73.82;54946.97;4984985;28;20026;-90
2021/05/04 08:15:01;;;;;;;50.13;39.28;;;;;;;-150.07;73.28;54951.16;4988076;28;20060;-91
2021/05/04 08:17:30;;;;;;;51.33;40.85;;;;;;;-150.07;73.40;54946.97;4981533;28;20484;-87
2021/05/04 08:20:00;;;;;;;53.05;41.60;;;;;;;-150.07;73.18;54946.97;4994375;28;20026;-86
2021/05/04 08:22:27;;;;;;;49.55;41.58;;;;;;;-150.07;72.99;54949.06;4986523;28;20026;-87
2021/05/04 08:24:55;;;;;;;52.47;42.85;;;;;;;-150.07;72.96;54949.06;4996102;28;20038;-86
2021/05/04 08:27:22;;;;;;;52.65;41.17;;;;;;;-150.07;72.87;54944.88;4984776;28;20105;-88
2021/05/04 08:29:49;;;;;;;56.10;42.75;;;;;;;-150.07;73.21;54951.16;4979474;28;20049;-89
2021/05/04 08:32:16;;;;;;;48.97;41.58;;;;;;;-150.07;73.62;54951.16;4996088;28;20034;-88
2021/05/04 08:34:43;;;;;;;62.70;47.70;;;;;;;-150.07;73.90;54946.97;4977660;28;20392;-87
2021/05/04 08:37:12;;;;;;;60.50;44.60;;;;;;;-150.07;74.09;54949.06;4993888;28;20034;-86
2021/05/04 08:39:39;;;;;;;69.30;45.25;;;;;;;-150.07;74.50;54946.97;4977818;28;20030;-87
2021/05/04 08:42:06;;;;;;;60.53;45.65;;;;;;;-150.07;74.69;54946.97;4995789;28;20022;-87
2021/05/04 08:44:34;;;;;;;66.03;47.58;;;;;;;-150.07;74.74;54951.16;4973379;28;20023;-87
2021/05/04 08:47:02;;;;;;;71.93;53.60;;;;;;;-150.07;74.89;54951.16;4986754;28;20030;-87
2021/05/04 08:49:31;;;;;;;71.97;53.95;;;;;;;-150.07;75.20;54951.16;4993787;28;20034;-88
2021/05/04 08:51:59;;;;;;;71.43;54.00;;;;;;;-150.07;75.28;54951.16;4976759;28;20034;-87
2021/05/04 08:54:26;;;;;;;68.75;49.83;;;;;;;-150.07;75.42;54946.97;4975969;28;20511;-88
2021/05/04 08:56:52;;;;;;;71.90;51.53;;;;;;;-150.07;75.72;54949.06;4993515;28;20141;-86
2021/05/04 08:59:19;;;;;;;65.60;50.85;;;;;;;-150.07;75.66;54949.06;4962859;28;20057;-88
2021/05/04 09:01:46;;;;;;;66.03;50.45;;;;;;;-150.07;75.82;54946.97;4995946;28;20102;-88
2021/05/04 09:04:38;;;;;;;62.35;48.90;;;;;;;-150.07;76.16;54949.06;4997352;28;20484;-88
2021/05/04 09:07:16;;;;;;;70.13;48.80;;;;;;;-150.07;76.14;54949.06;4998135;28;20058;-88
2021/05/04 09:10:38;;;;;;;73.50;53.35;;;;;;;-150.07;76.27;54946.97;4987557;28;20026;-86
2021/05/04 09:13:07;;;;;;;72.63;50.97;;;;;;;-150.07;76.30;54951.16;4984235;28;20034;-89
2021/05/04 09:21:14;;;;;;;60.88;49.03;;;;;;;-150.07;76.88;54951.16;4983076;28;20038;-88
2021/05/04 09:23:43;;;;;;;65.90;49.15;;;;;;;-150.07;77.00;54951.16;4976515;28;20506;-88
2021/05/04 09:26:38;;;;;;;69.72;50.88;;;;;;;-150.07;76.73;54946.97;4992784;28;20046;-88
2021/05/04 09:29:09;;;;;;;67.03;51.33;;;;;;;-150.07;76.68;54946.97;5004106;28;20026;-88
2021/05/04 09:31:38;;;;;;;69.95;50.58;;;;;;;-150.07;76.59;54951.16;4968261;28;20019;-87
2021/05/04 09:34:09;;;;;;;69.22;49.70;;;;;;;-150.07;76.36;54951.16;4995119;28;20031;-87
2021/05/04 09:36:47;;;;;;;65.80;49.90;;;;;;;-150.07;76.38;54946.97;4979384;28;20062;-87
2021/05/04 09:39:28;;;;;;;55.65;48.97;;;;;;;-150.07;76.11;54942.78;4994502;28;20085;-87
2021/05/04 09:41:57;;;;;;;57.55;44.92;;;;;;;-150.07;76.21;54951.16;4994604;28;20480;-88
2021/05/04 09:44:41;;;;;;;60.95;46.05;;;;;;;-150.07;75.94;54951.16;4977734;28;20073;-88
2021/05/04 09:47:11;;;;;;;63.83;47.28;;;;;;;-150.07;75.67;54946.97;5000674;28;20026;-87
2021/05/04 09:49:38;;;;;;;;;;;;;;;-150.07;75.50;54949.06;4993419;28;20049;-87
2021/05/04 09:55:12;;;;;;;50.28;43.22;;;;;;;-150.07;75.63;54949.06;4995224;28;20030;-88
2021/05/04 09:57:51;;;;;;;56.05;44.92;;;;;;;-150.07;76.06;54946.97;4958242;28;20059;-88
2021/05/04 10:00:23;;;;;;;61.95;46.72;;;;;;;-150.07;76.29;54949.06;4950155;29;20023;-88
2021/05/04 10:02:52;;;;;;;62.58;48.50;;;;;;;-150.07;76.56;54949.06;4954450;29;20039;-87
2021/05/04 10:05:20;;;;;;;63.83;48.00;;;;;;;-150.07;76.42;54951.16;4954054;28;20046;-88
2021/05/04 10:07:48;;;;;;;70.50;48.45;;;;;;;-150.07;76.67;54951.16;4954460;28;20467;-85
2021/05/04 10:10:17;;;;;;;56.88;47.88;;;;;;;-150.07;76.98;54946.97;4965647;28;20103;-86
2021/05/04 10:12:46;;;;;;;55.80;45.30;;;;;;;-150.07;77.05;54949.06;4956084;28;20121;-86
2021/05/04 10:15:15;;;;;;;59.10;47.30;;;;;;;-150.07;77.25;54946.97;4957271;28;20034;-87
2021/05/04 10:17:45;;;;;;;61.97;46.67;;;;;;;-150.07;77.26;54951.16;4956307;28;20054;-87
2021/05/04 10:20:15;;;;;;;59.60;50.25;;;;;;;-150.07;77.43;54949.06;4974933;28;20039;-87
2021/05/04 10:22:43;;;;;;;58.17;46.35;;;;;;;-150.07;77.62;54949.06;4974637;28;20027;-85
2021/05/04 10:25:16;;;;;;;59.38;44.40;;;;;;;-150.07;77.65;54949.06;4957422;28;20130;-87
2021/05/04 10:27:44;;;;;;;60.15;45.53;;;;;;;-150.07;77.95;54951.16;4956363;28;20125;-86
2021/05/04 10:30:19;;;;;;;52.30;43.20;;;;;;;-150.07;77.97;54951.16;4961729;28;20113;-86
2021/05/04 10:33:01;;;;;;;59.20;44.40;;;;;;;-150.07;78.25;54949.06;4979659;28;20035;-87
2021/05/04 10:35:35;;;;;;;58.85;45.47;;;;;;;-150.07;78.31;54951.16;4967123;28;20038;-87
2021/05/04 10:38:09;;;;;;;57.63;45.42;;;;;;;-150.07;78.42;54944.88;4966954;28;20098;-87
2021/05/04 10:41:12;;;;;;;56.95;46.25;;;;;;;-150.07;78.74;54949.06;4962466;28;20054;-87
2021/05/04 10:43:41;;;;;;;61.15;45.88;;;;;;;-150.07;78.84;54951.16;4959391;28;20043;-87
2021/05/04 10:46:11;;;;;;;59.88;45.33;;;;;;;-150.07;79.01;54951.16;4962609;28;20596;-87
2021/05/04 10:48:38;;;;;;;60.33;43.65;;;;;;;-150.07;79.42;54951.16;4955431;29;20058;-85
2021/05/04 10:51:12;;;;;;;65.47;45.42;;;;;;;-150.07;79.87;54949.06;4975352;28;20055;-83
2021/05/04 10:54:01;;;;;;;36.28;29.73;;;;;;;-150.07;79.51;54951.16;4950321;29;20042;-87
2021/05/04 10:56:37;;;;;;;38.13;33.08;;;;;;;-150.07;79.59;54951.16;4981041;28;20051;-92
2021/05/04 10:59:06;;;;;;;36.28;31.20;;;;;;;-150.07;79.62;54951.16;5004112;28;20034;-91
2021/05/04 11:01:35;;;;;;;39.33;32.42;;;;;;;-150.07;79.68;54946.97;4997737;28;20037;-90
2021/05/04 11:11:17;;;;;;;13.85;12.18;;;;;;;-150.07;79.42;54951.16;4976105;28;20046;-83
2021/05/04 11:13:54;;;;;;;9.25;8.45;;;;;;;-150.07;79.53;54946.97;4953139;28;20043;-82
2021/05/04 11:16:48;;;;;;;9.60;8.70;;;;;;;-150.07;79.58;54951.16;4949762;29;20042;-90
2021/05/04 11:19:19;;;;;;;8.68;7.85;;;;;;;-150.07;79.71;54946.97;4966568;28;20071;-90
2021/05/04 11:21:49;;;;;;;;;;;;;;;-150.07;79.58;54949.06;4956651;28;20039;-90
2021/05/04 11:24:21;;;;;;;8.02;7.32;;;;;;;-150.07;79.85;54951.16;4956390;29;19915;-89